sensor_id;sensor_type;location;lat;lon;timestamp;temperature;humidity
3268;DHT22;1646;52.450;13.326;2024-01-30T00:01:12;5.30;99.90
3268;DHT22;1646;52.450;13.326;2024-01-30T00:06:11;5.30;99.90
3268;DHT22;1646;52.450;13.326;2024-01-30T00:11:10;5.50;99.90
3268;DHT22;1646;52.450;13.326;2024-01-30T00:16:08;5.50;99.90
3268;DHT22;1646;52.450;13.326;2024-01-30T00:21:08;5.40;99.90
3268;DHT22;1646;52.450;13.326;2024-01-30T00:26:06;5.40;99.90
3268;DHT22;1646;52.450;13.326;2024-01-30T00:31:04;5.40;99.90
3268;DHT22;1646;52.450;13.326;2024-01-30T00:36:03;5.40;99.90
3268;DHT22;1646;52.450;13.326;2024-01-30T00:41:03;5.30;99.90
3268;DHT22;1646;52.450;13.326;2024-01-30T00:46:01;5.10;99.90
3268;DHT22;1646;52.450;13.326;2024-01-30T00:51:00;5.00;99.90
3268;DHT22;1646;52.450;13.326;2024-01-30T00:55:59;4.90;99.90
3268;DHT22;1646;52.450;13.326;2024-01-30T01:00:58;5.00;99.90
3268;DHT22;1646;52.450;13.326;2024-01-30T01:05:56;5.00;99.90
3268;DHT22;1646;52.450;13.326;2024-01-30T01:10:55;5.00;99.90
3268;DHT22;1646;52.450;13.326;2024-01-30T01:15:53;5.00;99.90
3268;DHT22;1646;52.450;13.326;2024-01-30T01:20:53;5.00;99.90
3268;DHT22;1646;52.450;13.326;2024-01-30T01:25:51;5.00;99.90
3268;DHT22;1646;52.450;13.326;2024-01-30T01:30:51;5.00;99.90
3268;DHT22;1646;52.450;13.326;2024-01-30T01:35:49;5.10;99.90
3268;DHT22;1646;52.450;13.326;2024-01-30T01:40:49;4.90;99.90
3268;DHT22;1646;52.450;13.326;2024-01-30T01:45:48;4.90;99.90
3268;DHT22;1646;52.450;13.326;2024-01-30T01:50:46;4.90;99.90
3268;DHT22;1646;52.450;13.326;2024-01-30T01:55:46;4.90;99.90
3268;DHT22;1646;52.450;13.326;2024-01-30T02:00:46;4.90;99.90
3268;DHT22;1646;52.450;13.326;2024-01-30T02:05:45;4.80;99.90
3268;DHT22;1646;52.450;13.326;2024-01-30T02:10:44;4.80;99.90
3268;DHT22;1646;52.450;13.326;2024-01-30T02:15:42;4.80;99.90
3268;DHT22;1646;52.450;13.326;2024-01-30T02:20:42;4.70;99.90
3268;DHT22;1646;52.450;13.326;2024-01-30T02:25:42;4.70;99.90
3268;DHT22;1646;52.450;13.326;2024-01-30T02:30:43;4.70;99.90
3268;DHT22;1646;52.450;13.326;2024-01-30T02:35:41;4.80;99.90
3268;DHT22;1646;52.450;13.326;2024-01-30T02:40:39;4.70;99.90
3268;DHT22;1646;52.450;13.326;2024-01-30T02:45:39;4.60;99.90
3268;DHT22;1646;52.450;13.326;2024-01-30T02:50:37;4.60;99.90
3268;DHT22;1646;52.450;13.326;2024-01-30T02:55:35;4.60;99.90
3268;DHT22;1646;52.450;13.326;2024-01-30T03:00:34;4.60;99.90
3268;DHT22;1646;52.450;13.326;2024-01-30T03:05:34;4.50;99.90
3268;DHT22;1646;52.450;13.326;2024-01-30T03:10:32;4.40;99.90
3268;DHT22;1646;52.450;13.326;2024-01-30T03:15:30;4.30;99.90
3268;DHT22;1646;52.450;13.326;2024-01-30T03:20:29;4.30;99.90
3268;DHT22;1646;52.450;13.326;2024-01-30T03:25:29;4.40;99.90
3268;DHT22;1646;52.450;13.326;2024-01-30T03:30:28;4.50;99.90
3268;DHT22;1646;52.450;13.326;2024-01-30T03:35:26;4.40;99.90
3268;DHT22;1646;52.450;13.326;2024-01-30T03:40:24;4.40;99.90
3268;DHT22;1646;52.450;13.326;2024-01-30T03:45:24;4.30;99.90
3268;DHT22;1646;52.450;13.326;2024-01-30T03:50:22;4.30;99.90
3268;DHT22;1646;52.450;13.326;2024-01-30T03:55:21;4.40;99.90
3268;DHT22;1646;52.450;13.326;2024-01-30T04:00:19;4.40;99.90
3268;DHT22;1646;52.450;13.326;2024-01-30T04:05:19;4.20;99.90
3268;DHT22;1646;52.450;13.326;2024-01-30T04:10:17;4.20;99.90
3268;DHT22;1646;52.450;13.326;2024-01-30T04:15:16;4.20;99.90
3268;DHT22;1646;52.450;13.326;2024-01-30T04:20:16;4.30;99.90
3268;DHT22;1646;52.450;13.326;2024-01-30T04:25:16;4.20;99.90
3268;DHT22;1646;52.450;13.326;2024-01-30T04:30:14;4.20;99.90
3268;DHT22;1646;52.450;13.326;2024-01-30T04:35:12;4.20;99.90
3268;DHT22;1646;52.450;13.326;2024-01-30T04:40:11;4.30;99.90
3268;DHT22;1646;52.450;13.326;2024-01-30T04:45:12;4.40;99.90
3268;DHT22;1646;52.450;13.326;2024-01-30T04:50:10;4.30;99.90
3268;DHT22;1646;52.450;13.326;2024-01-30T04:55:08;4.30;99.90
3268;DHT22;1646;52.450;13.326;2024-01-30T05:00:08;4.20;99.90
3268;DHT22;1646;52.450;13.326;2024-01-30T05:05:08;4.20;99.90
3268;DHT22;1646;52.450;13.326;2024-01-30T05:10:07;4.30;99.90
3268;DHT22;1646;52.450;13.326;2024-01-30T05:15:06;4.30;99.90
3268;DHT22;1646;52.450;13.326;2024-01-30T05:20:05;4.20;99.90
3268;DHT22;1646;52.450;13.326;2024-01-30T05:25:06;4.30;99.90
3268;DHT22;1646;52.450;13.326;2024-01-30T05:30:06;4.30;99.90
3268;DHT22;1646;52.450;13.326;2024-01-30T05:35:05;4.30;99.90
3268;DHT22;1646;52.450;13.326;2024-01-30T05:40:07;4.40;99.90
3268;DHT22;1646;52.450;13.326;2024-01-30T05:45:06;4.30;99.90
3268;DHT22;1646;52.450;13.326;2024-01-30T05:50:06;4.20;99.90
3268;DHT22;1646;52.450;13.326;2024-01-30T05:55:06;4.00;99.90
3268;DHT22;1646;52.450;13.326;2024-01-30T06:00:06;4.10;99.90
3268;DHT22;1646;52.450;13.326;2024-01-30T06:05:05;4.20;99.90
3268;DHT22;1646;52.450;13.326;2024-01-30T06:10:07;4.40;99.90
3268;DHT22;1646;52.450;13.326;2024-01-30T06:15:06;4.30;99.90
3268;DHT22;1646;52.450;13.326;2024-01-30T06:20:06;4.30;99.90
3268;DHT22;1646;52.450;13.326;2024-01-30T06:25:06;4.20;99.90
3268;DHT22;1646;52.450;13.326;2024-01-30T06:30:06;4.10;99.90
3268;DHT22;1646;52.450;13.326;2024-01-30T06:35:05;4.10;99.90
3268;DHT22;1646;52.450;13.326;2024-01-30T06:40:06;4.10;99.90
3268;DHT22;1646;52.450;13.326;2024-01-30T06:45:06;4.30;99.90
3268;DHT22;1646;52.450;13.326;2024-01-30T06:50:06;4.30;99.90
3268;DHT22;1646;52.450;13.326;2024-01-30T06:55:06;4.40;99.90
3268;DHT22;1646;52.450;13.326;2024-01-30T07:00:05;4.40;99.90
3268;DHT22;1646;52.450;13.326;2024-01-30T07:05:04;4.40;99.90
3268;DHT22;1646;52.450;13.326;2024-01-30T07:10:03;4.40;99.90
3268;DHT22;1646;52.450;13.326;2024-01-30T07:15:04;4.40;99.90
3268;DHT22;1646;52.450;13.326;2024-01-30T07:20:06;4.40;99.90
3268;DHT22;1646;52.450;13.326;2024-01-30T07:25:08;4.50;99.90
3268;DHT22;1646;52.450;13.326;2024-01-30T07:30:08;4.40;99.90
3268;DHT22;1646;52.450;13.326;2024-01-30T07:35:07;4.40;99.90
3268;DHT22;1646;52.450;13.326;2024-01-30T07:40:07;4.40;99.90
3268;DHT22;1646;52.450;13.326;2024-01-30T07:45:06;4.50;99.90
3268;DHT22;1646;52.450;13.326;2024-01-30T07:50:07;4.80;99.90
3268;DHT22;1646;52.450;13.326;2024-01-30T07:55:06;5.00;99.90
3268;DHT22;1646;52.450;13.326;2024-01-30T08:00:06;5.20;99.90
3268;DHT22;1646;52.450;13.326;2024-01-30T08:05:07;5.30;99.90
3268;DHT22;1646;52.450;13.326;2024-01-30T08:10:08;5.30;99.90
3268;DHT22;1646;52.450;13.326;2024-01-30T08:15:08;5.30;99.90
3268;DHT22;1646;52.450;13.326;2024-01-30T08:20:08;5.40;99.90
3268;DHT22;1646;52.450;13.326;2024-01-30T08:25:09;5.40;99.90
3268;DHT22;1646;52.450;13.326;2024-01-30T08:30:09;5.30;99.90
3268;DHT22;1646;52.450;13.326;2024-01-30T08:35:09;5.60;99.90
3268;DHT22;1646;52.450;13.326;2024-01-30T08:40:11;5.90;99.90
3268;DHT22;1646;52.450;13.326;2024-01-30T08:45:10;6.20;99.90
3268;DHT22;1646;52.450;13.326;2024-01-30T08:50:09;6.30;99.90
3268;DHT22;1646;52.450;13.326;2024-01-30T08:55:08;6.30;99.90
3268;DHT22;1646;52.450;13.326;2024-01-30T09:00:07;6.20;99.90
3268;DHT22;1646;52.450;13.326;2024-01-30T09:05:09;6.40;99.90
3268;DHT22;1646;52.450;13.326;2024-01-30T09:10:07;6.60;99.90
3268;DHT22;1646;52.450;13.326;2024-01-30T09:15:10;6.70;99.90
3268;DHT22;1646;52.450;13.326;2024-01-30T09:20:10;6.90;99.90
3268;DHT22;1646;52.450;13.326;2024-01-30T09:25:09;6.90;99.90
3268;DHT22;1646;52.450;13.326;2024-01-30T09:30:08;7.10;99.90
3268;DHT22;1646;52.450;13.326;2024-01-30T09:35:07;7.40;99.90
3268;DHT22;1646;52.450;13.326;2024-01-30T09:40:09;7.50;99.90
3268;DHT22;1646;52.450;13.326;2024-01-30T09:45:07;7.40;99.90
3268;DHT22;1646;52.450;13.326;2024-01-30T09:50:07;7.60;99.90
3268;DHT22;1646;52.450;13.326;2024-01-30T09:55:08;7.70;99.90
3268;DHT22;1646;52.450;13.326;2024-01-30T10:00:07;8.40;99.90
3268;DHT22;1646;52.450;13.326;2024-01-30T10:05:09;9.10;99.90
3268;DHT22;1646;52.450;13.326;2024-01-30T10:10:09;9.60;99.90
3268;DHT22;1646;52.450;13.326;2024-01-30T10:15:07;10.00;99.90
3268;DHT22;1646;52.450;13.326;2024-01-30T10:20:07;10.20;99.90
3268;DHT22;1646;52.450;13.326;2024-01-30T10:25:06;10.50;99.90
3268;DHT22;1646;52.450;13.326;2024-01-30T10:30:08;10.80;99.90
3268;DHT22;1646;52.450;13.326;2024-01-30T10:35:06;11.10;99.90
3268;DHT22;1646;52.450;13.326;2024-01-30T10:40:08;10.50;99.90
3268;DHT22;1646;52.450;13.326;2024-01-30T10:45:09;9.90;99.90
3268;DHT22;1646;52.450;13.326;2024-01-30T10:50:09;9.90;99.90
3268;DHT22;1646;52.450;13.326;2024-01-30T10:55:10;9.90;99.90
3268;DHT22;1646;52.450;13.326;2024-01-30T11:00:11;10.10;99.90
3268;DHT22;1646;52.450;13.326;2024-01-30T11:05:10;10.40;99.90
3268;DHT22;1646;52.450;13.326;2024-01-30T11:10:09;10.60;99.90
3268;DHT22;1646;52.450;13.326;2024-01-30T11:15:13;10.50;99.90
3268;DHT22;1646;52.450;13.326;2024-01-30T11:20:14;10.40;99.90
3268;DHT22;1646;52.450;13.326;2024-01-30T11:25:13;10.10;99.90
3268;DHT22;1646;52.450;13.326;2024-01-30T11:30:21;10.10;99.90
3268;DHT22;1646;52.450;13.326;2024-01-30T11:35:21;10.00;99.90
3268;DHT22;1646;52.450;13.326;2024-01-30T11:40:19;10.20;99.90
3268;DHT22;1646;52.450;13.326;2024-01-30T11:45:19;10.30;99.90
3268;DHT22;1646;52.450;13.326;2024-01-30T11:50:18;10.20;99.90
3268;DHT22;1646;52.450;13.326;2024-01-30T11:55:16;10.20;99.90
3268;DHT22;1646;52.450;13.326;2024-01-30T12:00:16;10.40;99.90
3268;DHT22;1646;52.450;13.326;2024-01-30T12:05:18;10.40;99.90
3268;DHT22;1646;52.450;13.326;2024-01-30T12:10:17;10.50;99.90
3268;DHT22;1646;52.450;13.326;2024-01-30T12:15:16;10.70;99.90
3268;DHT22;1646;52.450;13.326;2024-01-30T12:20:19;10.80;99.90
3268;DHT22;1646;52.450;13.326;2024-01-30T12:25:20;10.80;99.90
3268;DHT22;1646;52.450;13.326;2024-01-30T12:30:20;10.70;99.90
3268;DHT22;1646;52.450;13.326;2024-01-30T12:35:21;10.50;99.90
3268;DHT22;1646;52.450;13.326;2024-01-30T12:40:19;10.60;99.90
3268;DHT22;1646;52.450;13.326;2024-01-30T12:45:18;10.40;99.90
3268;DHT22;1646;52.450;13.326;2024-01-30T12:50:21;10.40;99.90
3268;DHT22;1646;52.450;13.326;2024-01-30T12:55:19;10.50;99.90
3268;DHT22;1646;52.450;13.326;2024-01-30T13:00:18;10.60;99.90
3268;DHT22;1646;52.450;13.326;2024-01-30T13:05:16;10.80;99.90
3268;DHT22;1646;52.450;13.326;2024-01-30T13:10:16;11.00;99.90
3268;DHT22;1646;52.450;13.326;2024-01-30T13:15:15;10.80;99.90
3268;DHT22;1646;52.450;13.326;2024-01-30T13:20:13;10.60;99.90
3268;DHT22;1646;52.450;13.326;2024-01-30T13:25:14;10.60;99.90
3268;DHT22;1646;52.450;13.326;2024-01-30T13:30:14;10.60;99.90
3268;DHT22;1646;52.450;13.326;2024-01-30T13:35:12;10.40;99.90
3268;DHT22;1646;52.450;13.326;2024-01-30T13:40:11;10.20;99.90
3268;DHT22;1646;52.450;13.326;2024-01-30T13:45:13;10.20;99.90
3268;DHT22;1646;52.450;13.326;2024-01-30T13:50:12;10.20;99.90
3268;DHT22;1646;52.450;13.326;2024-01-30T13:55:12;10.20;99.90
3268;DHT22;1646;52.450;13.326;2024-01-30T14:00:13;10.20;99.90
3268;DHT22;1646;52.450;13.326;2024-01-30T14:05:13;10.00;99.90
3268;DHT22;1646;52.450;13.326;2024-01-30T14:10:12;10.00;99.90
3268;DHT22;1646;52.450;13.326;2024-01-30T14:15:13;9.90;99.90
3268;DHT22;1646;52.450;13.326;2024-01-30T14:20:24;10.00;99.90
3268;DHT22;1646;52.450;13.326;2024-01-30T14:25:22;10.10;99.90
3268;DHT22;1646;52.450;13.326;2024-01-30T14:30:22;10.10;99.90
3268;DHT22;1646;52.450;13.326;2024-01-30T14:35:20;10.10;99.90
3268;DHT22;1646;52.450;13.326;2024-01-30T14:40:19;10.00;99.90
3268;DHT22;1646;52.450;13.326;2024-01-30T14:45:18;10.00;99.90
3268;DHT22;1646;52.450;13.326;2024-01-30T14:50:35;10.00;99.90
3268;DHT22;1646;52.450;13.326;2024-01-30T14:55:33;10.10;99.90
3268;DHT22;1646;52.450;13.326;2024-01-30T15:00:31;10.20;99.90
3268;DHT22;1646;52.450;13.326;2024-01-30T15:05:30;9.90;99.90
3268;DHT22;1646;52.450;13.326;2024-01-30T15:10:30;9.80;99.90
3268;DHT22;1646;52.450;13.326;2024-01-30T15:15:28;9.80;99.90
3268;DHT22;1646;52.450;13.326;2024-01-30T15:20:27;9.80;99.90
3268;DHT22;1646;52.450;13.326;2024-01-30T15:25:26;9.80;99.90
3268;DHT22;1646;52.450;13.326;2024-01-30T15:30:29;9.70;99.90
3268;DHT22;1646;52.450;13.326;2024-01-30T15:35:27;9.60;99.90
3268;DHT22;1646;52.450;13.326;2024-01-30T15:40:26;9.60;99.90
3268;DHT22;1646;52.450;13.326;2024-01-30T15:45:26;9.80;99.90
3268;DHT22;1646;52.450;13.326;2024-01-30T15:50:25;9.60;99.90
3268;DHT22;1646;52.450;13.326;2024-01-30T15:55:24;9.60;99.90
3268;DHT22;1646;52.450;13.326;2024-01-30T16:00:22;9.80;99.90
3268;DHT22;1646;52.450;13.326;2024-01-30T16:05:22;9.60;99.90
3268;DHT22;1646;52.450;13.326;2024-01-30T16:10:20;9.50;99.90
3268;DHT22;1646;52.450;13.326;2024-01-30T16:15:19;9.40;99.90
3268;DHT22;1646;52.450;13.326;2024-01-30T16:20:18;9.40;99.90
3268;DHT22;1646;52.450;13.326;2024-01-30T16:25:18;9.30;99.90
3268;DHT22;1646;52.450;13.326;2024-01-30T16:30:18;9.30;99.90
3268;DHT22;1646;52.450;13.326;2024-01-30T16:35:16;9.10;99.90
3268;DHT22;1646;52.450;13.326;2024-01-30T16:40:15;9.10;99.90
3268;DHT22;1646;52.450;13.326;2024-01-30T16:45:14;9.10;99.90
3268;DHT22;1646;52.450;13.326;2024-01-30T16:50:13;9.10;99.90
3268;DHT22;1646;52.450;13.326;2024-01-30T16:55:11;9.10;99.90
3268;DHT22;1646;52.450;13.326;2024-01-30T17:00:11;9.00;99.90
3268;DHT22;1646;52.450;13.326;2024-01-30T17:05:11;9.00;99.90
3268;DHT22;1646;52.450;13.326;2024-01-30T17:10:22;8.90;99.90
3268;DHT22;1646;52.450;13.326;2024-01-30T17:15:21;8.90;99.90
3268;DHT22;1646;52.450;13.326;2024-01-30T17:20:20;9.00;99.90
3268;DHT22;1646;52.450;13.326;2024-01-30T17:25:19;9.00;99.90
3268;DHT22;1646;52.450;13.326;2024-01-30T17:30:20;9.00;99.90
3268;DHT22;1646;52.450;13.326;2024-01-30T17:35:20;9.00;99.90
3268;DHT22;1646;52.450;13.326;2024-01-30T17:40:18;9.00;99.90
3268;DHT22;1646;52.450;13.326;2024-01-30T17:45:17;9.00;99.90
3268;DHT22;1646;52.450;13.326;2024-01-30T17:50:18;9.10;99.90
3268;DHT22;1646;52.450;13.326;2024-01-30T17:55:18;9.20;99.90
3268;DHT22;1646;52.450;13.326;2024-01-30T18:00:17;9.20;99.90
3268;DHT22;1646;52.450;13.326;2024-01-30T18:05:16;9.20;99.90
3268;DHT22;1646;52.450;13.326;2024-01-30T18:10:14;9.30;99.90
3268;DHT22;1646;52.450;13.326;2024-01-30T18:15:17;9.30;99.90
3268;DHT22;1646;52.450;13.326;2024-01-30T18:20:16;9.30;99.90
3268;DHT22;1646;52.450;13.326;2024-01-30T18:25:14;9.30;99.90
3268;DHT22;1646;52.450;13.326;2024-01-30T18:30:13;9.30;99.90
3268;DHT22;1646;52.450;13.326;2024-01-30T18:35:12;9.20;99.90
3268;DHT22;1646;52.450;13.326;2024-01-30T18:40:12;9.20;99.90
3268;DHT22;1646;52.450;13.326;2024-01-30T18:45:14;9.20;99.90
3268;DHT22;1646;52.450;13.326;2024-01-30T18:50:14;9.20;99.90
3268;DHT22;1646;52.450;13.326;2024-01-30T18:55:12;9.20;99.90
3268;DHT22;1646;52.450;13.326;2024-01-30T19:00:12;9.30;99.90
3268;DHT22;1646;52.450;13.326;2024-01-30T19:05:10;9.30;99.90
3268;DHT22;1646;52.450;13.326;2024-01-30T19:10:10;9.30;99.90
3268;DHT22;1646;52.450;13.326;2024-01-30T19:15:09;9.40;99.90
3268;DHT22;1646;52.450;13.326;2024-01-30T19:20:09;9.40;99.90
3268;DHT22;1646;52.450;13.326;2024-01-30T19:25:11;9.40;99.90
3268;DHT22;1646;52.450;13.326;2024-01-30T19:30:10;9.40;99.90
3268;DHT22;1646;52.450;13.326;2024-01-30T19:35:08;9.40;99.90
3268;DHT22;1646;52.450;13.326;2024-01-30T19:40:07;9.40;99.90
3268;DHT22;1646;52.450;13.326;2024-01-30T19:45:09;9.50;99.90
3268;DHT22;1646;52.450;13.326;2024-01-30T19:50:09;9.50;99.90
3268;DHT22;1646;52.450;13.326;2024-01-30T19:55:07;9.60;99.90
3268;DHT22;1646;52.450;13.326;2024-01-30T20:00:07;9.50;99.90
3268;DHT22;1646;52.450;13.326;2024-01-30T20:05:08;9.50;99.90
3268;DHT22;1646;52.450;13.326;2024-01-30T20:10:09;9.40;99.90
3268;DHT22;1646;52.450;13.326;2024-01-30T20:15:09;9.50;99.90
3268;DHT22;1646;52.450;13.326;2024-01-30T20:20:10;9.50;99.90
3268;DHT22;1646;52.450;13.326;2024-01-30T20:25:12;9.50;99.90
3268;DHT22;1646;52.450;13.326;2024-01-30T20:30:16;9.60;99.90
3268;DHT22;1646;52.450;13.326;2024-01-30T20:35:16;9.60;99.90
3268;DHT22;1646;52.450;13.326;2024-01-30T20:40:15;9.60;99.90
3268;DHT22;1646;52.450;13.326;2024-01-30T20:45:14;9.60;99.90
3268;DHT22;1646;52.450;13.326;2024-01-30T20:50:12;9.60;99.90
3268;DHT22;1646;52.450;13.326;2024-01-30T20:55:12;9.50;99.90
3268;DHT22;1646;52.450;13.326;2024-01-30T21:00:12;9.50;99.90
3268;DHT22;1646;52.450;13.326;2024-01-30T21:05:11;9.50;99.90
3268;DHT22;1646;52.450;13.326;2024-01-30T21:10:09;9.50;99.90
3268;DHT22;1646;52.450;13.326;2024-01-30T21:15:10;9.50;99.90
3268;DHT22;1646;52.450;13.326;2024-01-30T21:20:09;9.50;99.90
3268;DHT22;1646;52.450;13.326;2024-01-30T21:25:09;9.40;99.90
3268;DHT22;1646;52.450;13.326;2024-01-30T21:30:09;9.50;99.90
3268;DHT22;1646;52.450;13.326;2024-01-30T21:35:07;9.50;99.90
3268;DHT22;1646;52.450;13.326;2024-01-30T21:40:07;9.50;99.90
3268;DHT22;1646;52.450;13.326;2024-01-30T21:45:26;9.40;99.90
3268;DHT22;1646;52.450;13.326;2024-01-30T21:50:24;9.40;99.90
3268;DHT22;1646;52.450;13.326;2024-01-30T21:55:23;9.40;99.90
3268;DHT22;1646;52.450;13.326;2024-01-30T22:00:21;9.40;99.90
3268;DHT22;1646;52.450;13.326;2024-01-30T22:05:21;9.40;99.90
3268;DHT22;1646;52.450;13.326;2024-01-30T22:10:19;9.40;99.90
3268;DHT22;1646;52.450;13.326;2024-01-30T22:15:18;9.50;99.90
3268;DHT22;1646;52.450;13.326;2024-01-30T22:20:16;9.50;99.90
3268;DHT22;1646;52.450;13.326;2024-01-30T22:25:16;9.60;99.90
3268;DHT22;1646;52.450;13.326;2024-01-30T22:30:14;9.40;99.90
3268;DHT22;1646;52.450;13.326;2024-01-30T22:35:13;9.30;99.90
3268;DHT22;1646;52.450;13.326;2024-01-30T22:40:12;9.30;99.90
3268;DHT22;1646;52.450;13.326;2024-01-30T22:45:12;9.30;99.90
3268;DHT22;1646;52.450;13.326;2024-01-30T22:50:10;9.30;99.90
3268;DHT22;1646;52.450;13.326;2024-01-30T22:55:09;9.20;99.90
3268;DHT22;1646;52.450;13.326;2024-01-30T23:00:07;9.30;99.90
3268;DHT22;1646;52.450;13.326;2024-01-30T23:05:13;9.10;99.90
3268;DHT22;1646;52.450;13.326;2024-01-30T23:10:11;9.20;99.90
3268;DHT22;1646;52.450;13.326;2024-01-30T23:15:10;9.10;99.90
3268;DHT22;1646;52.450;13.326;2024-01-30T23:20:09;9.00;99.90
3268;DHT22;1646;52.450;13.326;2024-01-30T23:25:10;9.00;99.90
3268;DHT22;1646;52.450;13.326;2024-01-30T23:30:09;9.00;99.90
3268;DHT22;1646;52.450;13.326;2024-01-30T23:35:08;9.00;99.90
3268;DHT22;1646;52.450;13.326;2024-01-30T23:40:12;8.90;99.90
3268;DHT22;1646;52.450;13.326;2024-01-30T23:45:11;8.90;99.90
3268;DHT22;1646;52.450;13.326;2024-01-30T23:50:09;8.90;99.90
3268;DHT22;1646;52.450;13.326;2024-01-30T23:55:08;8.90;99.90
